Time;durP1;ratioP1;P1;durP2;ratioP2;P2;SDS_P1;SDS_P2;PMS_P1;PMS_P2;Temp;Humidity;BMP_temperature;BMP_pressure;BME280_temperature;BME280_humidity;BME280_pressure;Samples;Min_cycle;Max_cycle;Signal;HPM_P1;HPM_P2
2023/05/02 00:01:40;;;;;;;806.33;743.50;;;9.20;99.90;;;;;;6184932;23;20408;-85
2023/05/02 00:04:07;;;;;;;808.00;741.40;;;9.10;99.90;;;;;;6184737;23;20413;-85
2023/05/02 00:06:34;;;;;;;794.37;726.77;;;9.00;99.90;;;;;;6184828;23;20491;-85
2023/05/02 00:09:02;;;;;;;790.77;722.20;;;9.00;99.90;;;;;;6196142;23;20405;-85
2023/05/02 00:11:29;;;;;;;796.40;718.83;;;9.00;99.90;;;;;;6185509;23;20772;-85
2023/05/02 00:13:57;;;;;;;798.93;722.60;;;9.00;99.90;;;;;;6184413;23;20416;-85
2023/05/02 00:16:24;;;;;;;790.77;712.30;;;9.10;99.90;;;;;;6184636;23;20463;-85
2023/05/02 00:18:51;;;;;;;792.10;717.40;;;9.10;99.90;;;;;;6186380;23;20624;-84
2023/05/02 00:21:17;;;;;;;795.27;723.13;;;9.00;99.90;;;;;;6185299;23;20496;-85
2023/05/02 00:23:44;;;;;;;789.40;715.40;;;8.90;99.90;;;;;;6184805;23;20491;-84
2023/05/02 00:26:11;;;;;;;781.47;707.10;;;8.90;99.90;;;;;;6184880;23;20496;-85
2023/05/02 00:28:39;;;;;;;778.03;700.97;;;9.00;99.90;;;;;;6185835;23;20448;-84
2023/05/02 00:31:07;;;;;;;771.67;696.20;;;9.00;99.90;;;;;;6185135;23;20420;-85
2023/05/02 00:33:34;;;;;;;774.50;695.60;;;8.90;99.90;;;;;;6194415;23;20416;-85
2023/05/02 00:36:01;;;;;;;771.80;693.30;;;9.00;99.90;;;;;;6184796;23;20496;-85
2023/05/02 00:38:28;;;;;;;778.90;701.30;;;9.00;99.90;;;;;;6186099;23;20523;-85
2023/05/02 00:40:55;;;;;;;766.43;688.57;;;9.00;99.90;;;;;;6185050;23;20476;-85
2023/05/02 00:43:22;;;;;;;772.43;694.70;;;9.00;99.90;;;;;;6194483;23;20418;-84
2023/05/02 00:45:48;;;;;;;771.40;692.00;;;8.80;99.90;;;;;;6184511;23;20796;-84
2023/05/02 00:48:19;;;;;;;778.60;699.77;;;8.80;99.90;;;;;;6185909;23;20489;-85
2023/05/02 00:50:46;;;;;;;769.27;689.60;;;8.90;99.90;;;;;;6185756;23;20455;-85
2023/05/02 00:53:13;;;;;;;760.33;680.93;;;8.90;99.90;;;;;;6184742;23;20455;-85
2023/05/02 00:55:40;;;;;;;769.47;689.33;;;8.90;99.90;;;;;;6184389;23;20421;-85
2023/05/02 00:58:11;;;;;;;763.37;683.57;;;8.90;99.90;;;;;;6187545;23;20437;-84
2023/05/02 01:00:54;;;;;;;764.40;684.40;;;9.00;99.90;;;;;;6187727;23;20405;-84
2023/05/02 01:03:36;;;;;;;775.23;695.03;;;9.00;99.90;;;;;;6196472;23;20425;-85
2023/05/02 01:06:15;;;;;;;769.67;689.07;;;9.00;99.90;;;;;;6186642;23;20475;-85
2023/05/02 01:08:50;;;;;;;780.97;699.50;;;9.00;99.90;;;;;;6188159;23;20701;-85
2023/05/02 01:11:28;;;;;;;779.90;698.97;;;8.80;99.90;;;;;;6187196;23;20419;-85
2023/05/02 01:13:56;;;;;;;776.80;698.00;;;8.70;99.90;;;;;;6186211;23;20483;-85
2023/05/02 01:16:25;;;;;;;780.60;701.00;;;8.60;99.90;;;;;;6186526;23;20452;-85
2023/05/02 01:18:55;;;;;;;773.70;692.30;;;8.50;99.90;;;;;;6187880;23;20483;-85
2023/05/02 01:21:22;;;;;;;767.60;686.70;;;8.50;99.90;;;;;;6186556;23;20529;-84
2023/05/02 01:23:58;;;;;;;765.73;683.73;;;8.40;99.90;;;;;;6186471;23;20743;-84
2023/05/02 01:26:34;;;;;;;762.80;677.93;;;8.60;99.90;;;;;;6186265;23;20404;-85
2023/05/02 01:29:04;;;;;;;769.53;679.77;;;8.70;99.90;;;;;;6187592;23;20873;-85
2023/05/02 01:31:34;;;;;;;775.17;669.00;;;8.80;99.90;;;;;;6186393;23;20397;-85
2023/05/02 01:34:02;;;;;;;775.27;672.33;;;8.90;99.90;;;;;;6186213;23;20451;-84
2023/05/02 01:36:31;;;;;;;778.30;667.83;;;8.90;99.90;;;;;;6186079;23;20441;-85
2023/05/02 01:39:00;;;;;;;796.63;664.03;;;9.10;99.90;;;;;;6187378;23;20436;-85
2023/05/02 01:41:29;;;;;;;793.53;667.17;;;9.30;99.90;;;;;;6186690;23;20492;-85
2023/05/02 01:43:58;;;;;;;776.63;671.40;;;9.40;99.90;;;;;;6186038;23;20495;-85
2023/05/02 01:46:29;;;;;;;764.53;680.47;;;9.50;99.90;;;;;;6195895;23;20491;-85
2023/05/02 01:48:58;;;;;;;780.67;684.87;;;9.60;99.90;;;;;;6187450;23;20954;-85
2023/05/02 01:51:30;;;;;;;766.07;683.77;;;9.60;99.90;;;;;;6186380;23;20413;-85
2023/05/02 01:53:59;;;;;;;769.50;685.97;;;9.60;99.90;;;;;;6186041;23;20455;-85
2023/05/02 01:56:30;;;;;;;775.83;694.13;;;9.70;99.90;;;;;;6186280;23;20417;-85
2023/05/02 01:58:59;;;;;;;777.13;695.33;;;9.70;99.90;;;;;;6187614;23;20425;-84
2023/05/02 02:01:29;;;;;;;764.23;683.30;;;9.80;99.90;;;;;;6186546;23;20500;-85
2023/05/02 02:04:01;;;;;;;764.63;685.93;;;9.80;99.90;;;;;;6186072;23;20397;-85
2023/05/02 02:06:28;;;;;;;767.73;689.30;;;9.80;99.90;;;;;;6185902;23;20433;-85
2023/05/02 02:08:55;;;;;;;757.23;678.40;;;9.80;99.90;;;;;;6186889;23;20890;-85
2023/05/02 02:11:27;;;;;;;757.93;681.30;;;9.90;99.90;;;;;;6186510;23;20488;-85
2023/05/02 02:14:01;;;;;;;748.83;675.33;;;9.90;99.90;;;;;;6186137;23;20484;-85
2023/05/02 02:16:33;;;;;;;738.37;666.07;;;9.90;99.90;;;;;;6185803;23;20492;-85
2023/05/02 02:19:06;;;;;;;737.07;663.70;;;9.90;99.90;;;;;;6187092;23;20425;-85
2023/05/02 02:21:35;;;;;;;752.63;679.30;;;10.00;99.90;;;;;;6196233;23;20390;-85
2023/05/02 02:24:03;;;;;;;755.37;681.47;;;9.90;99.90;;;;;;6185550;23;20504;-85
2023/05/02 02:26:30;;;;;;;756.60;683.70;;;10.00;99.90;;;;;;6185619;23;20495;-85
2023/05/02 02:28:57;;;;;;;756.37;685.17;;;10.00;99.90;;;;;;6187071;23;20441;-85
2023/05/02 02:31:24;;;;;;;748.77;678.27;;;10.00;99.90;;;;;;6195703;23;20975;-85
2023/05/02 02:33:53;;;;;;;744.90;675.90;;;10.00;99.90;;;;;;6185354;23;20971;-85
2023/05/02 02:36:28;;;;;;;726.67;659.00;;;10.00;99.90;;;;;;6185710;23;20420;-85
2023/05/02 02:39:02;;;;;;;723.63;656.90;;;10.10;99.90;;;;;;6187018;23;20420;-85
2023/05/02 02:41:36;;;;;;;727.10;661.13;;;10.10;99.90;;;;;;6185907;23;20407;-85
2023/05/02 02:44:20;;;;;;;725.60;661.00;;;10.10;99.90;;;;;;6185578;23;20487;-85
2023/05/02 02:46:58;;;;;;;722.77;658.60;;;10.10;99.90;;;;;;6195904;23;20455;-85
2023/05/02 02:49:35;;;;;;;729.10;667.47;;;10.20;99.90;;;;;;6186937;23;20436;-85
2023/05/02 02:52:10;;;;;;;727.83;666.00;;;10.20;99.90;;;;;;6185638;23;20401;-85
2023/05/02 02:54:43;;;;;;;722.97;661.90;;;10.20;99.90;;;;;;6185698;23;20401;-85
2023/05/02 02:57:16;;;;;;;719.03;657.37;;;10.20;99.90;;;;;;6186278;23;20484;-85
2023/05/02 02:59:51;;;;;;;715.97;656.20;;;10.20;99.90;;;;;;6186639;23;20504;-85
2023/05/02 03:02:22;;;;;;;723.23;664.27;;;10.30;99.90;;;;;;6185289;23;20436;-85
2023/05/02 03:04:53;;;;;;;734.37;673.53;;;10.30;99.90;;;;;;6185520;23;20484;-85
2023/05/02 03:07:20;;;;;;;731.30;670.67;;;10.20;99.90;;;;;;6196023;23;20406;-85
2023/05/02 03:09:48;;;;;;;732.57;673.27;;;10.20;99.90;;;;;;6186907;23;20496;-85
2023/05/02 03:12:15;;;;;;;727.00;667.30;;;10.30;99.90;;;;;;6185493;23;20444;-85
2023/05/02 03:14:42;;;;;;;728.03;667.40;;;10.20;99.90;;;;;;6185264;23;20419;-85
2023/05/02 03:17:09;;;;;;;727.83;667.87;;;10.20;99.90;;;;;;6185955;23;20496;-85
2023/05/02 03:19:36;;;;;;;742.57;683.00;;;10.30;99.90;;;;;;6196187;23;20429;-85
2023/05/02 03:22:04;;;;;;;752.80;693.93;;;10.20;99.90;;;;;;6185130;23;20417;-85
2023/05/02 03:24:31;;;;;;;744.73;684.50;;;10.30;99.90;;;;;;6185198;23;20413;-85
2023/05/02 03:26:59;;;;;;;753.07;693.07;;;10.30;99.90;;;;;;6185755;23;20444;-85
2023/05/02 03:29:27;;;;;;;750.37;691.57;;;10.30;99.90;;;;;;6186615;23;20508;-85
2023/05/02 03:31:54;;;;;;;747.43;688.67;;;10.40;99.90;;;;;;6184782;23;20443;-85
2023/05/02 03:34:21;;;;;;;739.13;679.93;;;10.40;99.90;;;;;;6185001;23;20409;-85
2023/05/02 03:36:48;;;;;;;746.73;687.27;;;10.30;99.90;;;;;;6185491;23;20412;-85
2023/05/02 03:39:17;;;;;;;750.30;690.00;;;10.30;99.90;;;;;;6196386;23;20456;-85
2023/05/02 03:41:44;;;;;;;748.63;688.17;;;10.30;99.90;;;;;;6185162;23;20445;-85
2023/05/02 03:44:11;;;;;;;745.93;686.17;;;10.30;99.90;;;;;;6184313;23;20417;-85
2023/05/02 03:46:38;;;;;;;760.77;700.30;;;10.30;99.90;;;;;;6185621;23;20807;-88
2023/05/02 03:49:05;;;;;;;753.07;692.00;;;10.40;99.90;;;;;;6196235;23;20412;-85
2023/05/02 03:51:33;;;;;;;754.37;693.27;;;10.30;99.90;;;;;;6185230;23;20413;-85
2023/05/02 03:54:00;;;;;;;752.57;689.30;;;10.40;99.90;;;;;;6184744;23;20508;-85
2023/05/02 03:56:29;;;;;;;743.07;680.47;;;10.30;99.90;;;;;;6184730;23;20421;-85
2023/05/02 03:58:55;;;;;;;767.17;705.83;;;10.40;99.90;;;;;;6186525;23;20957;-85
2023/05/02 04:01:22;;;;;;;761.73;699.63;;;10.30;99.90;;;;;;6195184;23;20491;-85
2023/05/02 04:03:50;;;;;;;736.37;674.20;;;10.30;99.90;;;;;;6184559;23;20421;-85
2023/05/02 04:06:17;;;;;;;747.50;683.50;;;10.40;99.90;;;;;;6185053;23;20741;-82
2023/05/02 04:08:44;;;;;;;746.93;684.03;;;10.40;99.90;;;;;;6186053;23;20492;-86
2023/05/02 04:11:11;;;;;;;745.70;682.37;;;10.30;99.90;;;;;;6185622;23;20413;-85
2023/05/02 04:13:39;;;;;;;748.87;686.50;;;10.30;99.90;;;;;;6184705;23;20778;-85
2023/05/02 04:16:06;;;;;;;756.80;694.00;;;10.40;99.90;;;;;;6184853;23;20515;-85
2023/05/02 04:18:33;;;;;;;752.00;688.67;;;10.30;99.90;;;;;;6186310;23;20433;-86
2023/05/02 04:21:00;;;;;;;747.33;683.27;;;10.30;99.90;;;;;;6185453;23;20495;-85
2023/05/02 04:23:27;;;;;;;743.93;679.27;;;10.40;99.90;;;;;;6184491;23;20948;-85
2023/05/02 04:25:55;;;;;;;750.77;684.87;;;10.30;99.90;;;;;;6184623;23;20417;-85
2023/05/02 04:28:23;;;;;;;743.77;680.27;;;10.30;99.90;;;;;;6186418;23;20796;-89
2023/05/02 04:30:51;;;;;;;749.30;687.10;;;10.30;99.90;;;;;;6185047;23;20428;-85
2023/05/02 04:33:19;;;;;;;754.57;690.90;;;10.40;99.90;;;;;;6184921;23;20783;-85
2023/05/02 04:35:46;;;;;;;755.47;693.07;;;10.30;99.90;;;;;;6194319;23;20424;-85
2023/05/02 04:38:13;;;;;;;755.37;694.57;;;10.30;99.90;;;;;;6185646;23;20423;-85
2023/05/02 04:40:41;;;;;;;754.73;694.83;;;10.40;99.90;;;;;;6185532;23;20496;-85
2023/05/02 04:43:08;;;;;;;757.00;696.60;;;10.40;99.90;;;;;;6194109;23;20439;-85
2023/05/02 04:45:36;;;;;;;748.10;685.90;;;10.40;99.90;;;;;;6184788;23;20445;-85
2023/05/02 04:48:05;;;;;;;757.43;696.37;;;10.50;99.90;;;;;;6185550;23;20419;-85
2023/05/02 04:50:32;;;;;;;745.13;688.63;;;10.50;99.90;;;;;;6185694;23;20436;-85
2023/05/02 04:52:59;;;;;;;745.70;690.27;;;10.50;99.90;;;;;;6184387;23;20417;-85
2023/05/02 04:55:26;;;;;;;751.37;697.87;;;10.40;99.90;;;;;;6194798;23;20413;-85
2023/05/02 04:57:53;;;;;;;741.67;688.70;;;10.50;99.90;;;;;;6185694;23;20789;-85
2023/05/02 05:00:20;;;;;;;735.10;685.40;;;10.40;99.90;;;;;;6185285;23;20437;-85
2023/05/02 05:02:47;;;;;;;732.63;684.50;;;10.50;99.90;;;;;;6183938;23;20409;-85
2023/05/02 05:05:17;;;;;;;718.07;671.47;;;10.50;99.90;;;;;;6183396;23;20421;-85
2023/05/02 05:07:44;;;;;;;725.70;678.33;;;10.50;99.90;;;;;;6185116;23;20459;-85
2023/05/02 05:10:11;;;;;;;715.53;670.30;;;10.40;99.90;;;;;;6185288;23;20447;-85
2023/05/02 05:12:38;;;;;;;729.90;682.77;;;10.50;99.90;;;;;;6183133;23;20913;-86
2023/05/02 05:15:06;;;;;;;732.60;685.27;;;10.40;99.90;;;;;;6184107;23;20528;-86
2023/05/02 05:17:33;;;;;;;723.07;677.17;;;10.50;99.90;;;;;;6185421;23;20881;-85
2023/05/02 05:20:00;;;;;;;710.57;667.07;;;10.50;99.90;;;;;;6185614;23;20464;-85
2023/05/02 05:22:28;;;;;;;717.40;673.03;;;10.50;99.90;;;;;;6193622;23;20416;-85
2023/05/02 05:24:55;;;;;;;758.07;708.30;;;10.40;99.90;;;;;;6184517;23;20496;-85
2023/05/02 05:27:22;;;;;;;764.70;715.23;;;10.30;99.90;;;;;;6185128;23;20567;-86
2023/05/02 05:29:49;;;;;;;748.23;700.50;;;10.30;99.90;;;;;;6185681;23;20504;-86
2023/05/02 05:32:16;;;;;;;760.03;709.27;;;10.40;99.90;;;;;;6184197;23;20412;-85
2023/05/02 05:34:43;;;;;;;758.00;708.90;;;10.50;99.90;;;;;;6183704;23;20419;-85
2023/05/02 05:37:10;;;;;;;775.43;721.90;;;10.50;99.90;;;;;;6184866;23;20725;-85
2023/05/02 05:39:38;;;;;;;779.63;723.33;;;10.40;99.90;;;;;;6185500;23;20464;-87
2023/05/02 05:42:08;;;;;;;776.47;719.77;;;10.40;99.90;;;;;;6184217;23;20456;-85
2023/05/02 05:44:35;;;;;;;779.63;719.73;;;10.40;99.90;;;;;;6184487;23;20473;-86
2023/05/02 05:47:02;;;;;;;779.30;720.10;;;10.40;99.90;;;;;;6185820;23;20413;-85
2023/05/02 05:49:30;;;;;;;783.67;723.17;;;10.50;99.90;;;;;;6187350;23;20914;-85
2023/05/02 05:51:57;;;;;;;781.30;720.17;;;10.50;99.90;;;;;;6186026;23;20792;-85
2023/05/02 05:54:24;;;;;;;786.03;723.93;;;10.40;99.90;;;;;;6186101;23;20504;-85
2023/05/02 05:56:53;;;;;;;788.17;723.67;;;10.40;99.90;;;;;;6185982;23;20947;-85
2023/05/02 05:59:20;;;;;;;759.57;693.47;;;10.30;99.90;;;;;;6197077;23;20432;-85
2023/05/02 06:01:47;;;;;;;742.43;675.67;;;10.50;99.90;;;;;;6186243;23;20475;-85
2023/05/02 06:04:14;;;;;;;749.20;681.20;;;10.50;99.90;;;;;;6185664;23;20413;-86
2023/05/02 06:06:41;;;;;;;759.50;692.60;;;10.50;99.90;;;;;;6186205;23;20492;-86
2023/05/02 06:09:08;;;;;;;766.60;702.80;;;10.50;99.90;;;;;;6187515;23;20782;-85
2023/05/02 06:11:37;;;;;;;763.63;697.90;;;10.50;99.90;;;;;;6186247;23;20487;-85
2023/05/02 06:14:05;;;;;;;771.27;706.77;;;10.60;99.90;;;;;;6185993;23;20413;-85
2023/05/02 06:16:32;;;;;;;775.83;711.63;;;10.60;99.90;;;;;;6195651;23;20446;-85
2023/05/02 06:18:59;;;;;;;774.07;712.67;;;10.70;99.90;;;;;;6187366;23;20520;-85
2023/05/02 06:21:26;;;;;;;771.57;711.07;;;10.70;99.90;;;;;;6186346;23;20500;-85
2023/05/02 06:23:53;;;;;;;768.30;711.10;;;10.70;99.90;;;;;;6185374;23;20412;-86
2023/05/02 06:26:20;;;;;;;756.37;703.67;;;10.80;99.90;;;;;;6185568;23;20417;-85
2023/05/02 06:28:47;;;;;;;762.73;709.30;;;10.70;99.90;;;;;;6196924;23;20467;-85
2023/05/02 06:31:16;;;;;;;778.83;723.40;;;10.70;99.90;;;;;;6186803;23;20425;-85
2023/05/02 06:33:43;;;;;;;772.03;719.83;;;10.70;99.90;;;;;;6185433;23;20423;-85
2023/05/02 06:36:10;;;;;;;764.63;714.30;;;10.70;99.90;;;;;;6185242;23;20500;-85
2023/05/02 06:38:37;;;;;;;720.37;677.60;;;10.60;99.90;;;;;;6196694;23;20499;-85
2023/05/02 06:41:04;;;;;;;705.40;661.60;;;10.50;99.90;;;;;;6185970;23;20437;-85
2023/05/02 06:43:31;;;;;;;589.20;562.63;;;10.60;99.90;;;;;;6185579;23;20447;-86
2023/05/02 06:45:58;;;;;;;400.60;386.20;;;10.40;99.90;;;;;;6195363;23;20468;-86
2023/05/02 06:48:26;;;;;;;365.17;352.93;;;10.30;99.90;;;;;;6187033;23;20496;-86
2023/05/02 06:50:57;;;;;;;391.90;378.30;;;10.00;99.90;;;;;;6186427;23;20451;-86
2023/05/02 06:53:24;;;;;;;410.63;396.27;;;9.90;99.90;;;;;;6194853;23;20777;-86
2023/05/02 06:55:51;;;;;;;442.17;426.57;;;9.70;99.90;;;;;;6183428;23;20492;-85
2023/05/02 06:58:18;;;;;;;419.13;404.13;;;9.80;99.90;;;;;;6196259;23;20409;-85
2023/05/02 07:00:45;;;;;;;389.53;375.93;;;9.80;99.90;;;;;;6185961;23;20464;-86
2023/05/02 07:03:12;;;;;;;379.87;366.77;;;9.90;99.90;;;;;;6194922;23;20714;-85
2023/05/02 07:05:40;;;;;;;507.40;486.93;;;10.10;99.90;;;;;;6184905;23;20475;-85
2023/05/02 07:08:07;;;;;;;487.77;468.33;;;10.30;99.90;;;;;;6186479;23;20420;-86
2023/05/02 07:10:34;;;;;;;482.33;463.23;;;10.60;99.90;;;;;;6186863;23;20702;-85
2023/05/02 07:13:01;;;;;;;336.63;324.83;;;10.80;99.90;;;;;;6194355;23;20814;-86
2023/05/02 07:15:28;;;;;;;307.53;296.53;;;11.00;99.90;;;;;;6194189;23;20447;-85
2023/05/02 07:17:55;;;;;;;371.17;357.57;;;11.20;99.90;;;;;;6186014;23;20416;-85
2023/05/02 07:20:23;;;;;;;346.53;333.70;;;11.20;99.90;;;;;;6186532;23;20436;-85
2023/05/02 07:22:51;;;;;;;380.33;366.57;;;11.20;99.90;;;;;;6184791;23;20444;-86
2023/05/02 07:25:18;;;;;;;194.63;187.33;;;11.30;99.90;;;;;;6184447;23;20778;-86
2023/05/02 07:27:45;;;;;;;119.73;115.27;;;11.30;99.90;;;;;;6185647;23;20917;-85
2023/05/02 07:30:13;;;;;;;139.23;133.63;;;11.30;99.90;;;;;;6186064;23;20445;-86
2023/05/02 07:32:40;;;;;;;95.90;92.00;;;11.40;99.90;;;;;;6183665;23;20421;-85
2023/05/02 07:35:10;;;;;;;69.13;65.43;;;11.40;99.90;;;;;;6184314;23;20981;-86
2023/05/02 07:37:37;;;;;;;55.80;53.00;;;11.50;99.90;;;;;;6185799;23;20413;-85
2023/05/02 07:40:06;;;;;;;23.67;21.90;;;11.60;99.90;;;;;;6186602;23;20512;-86
2023/05/02 07:42:33;;;;;;;43.67;41.07;;;11.40;99.90;;;;;;6184906;23;20413;-86
2023/05/02 07:45:00;;;;;;;22.83;21.33;;;11.70;99.90;;;;;;6184988;23;20409;-85
2023/05/02 07:47:28;;;;;;;22.83;21.20;;;11.90;99.90;;;;;;6185394;23;20451;-85
2023/05/02 07:49:55;;;;;;;21.70;19.77;;;12.00;99.90;;;;;;6186515;23;20477;-85
2023/05/02 07:52:22;;;;;;;14.33;12.53;;;12.10;99.90;;;;;;6184887;23;20449;-86
2023/05/02 07:54:49;;;;;;;10.83;9.77;;;12.30;99.90;;;;;;6194176;23;20436;-86
2023/05/02 07:57:18;;;;;;;11.53;6.97;;;12.20;99.90;;;;;;6185207;23;20440;-85
2023/05/02 07:59:44;;;;;;;13.23;4.00;;;12.20;99.90;;;;;;6186018;23;20520;-85
2023/05/02 08:02:12;;;;;;;11.43;4.43;;;12.20;99.90;;;;;;6194363;23;20496;-85
2023/05/02 08:04:39;;;;;;;12.20;9.15;;;12.10;99.90;;;;;;6182485;23;20665;-86
2023/05/02 08:07:06;;;;;;;10.87;5.67;;;12.40;99.90;;;;;;6194832;23;20528;-86
2023/05/02 08:09:34;;;;;;;8.37;3.23;;;12.60;99.90;;;;;;6186151;23;20489;-85
2023/05/02 08:12:02;;;;;;;8.63;3.20;;;12.60;99.90;;;;;;6184700;23;20424;-86
2023/05/02 08:14:30;;;;;;;7.80;3.60;;;13.10;99.90;;;;;;6194722;23;20413;-85
2023/05/02 08:16:57;;;;;;;11.67;3.37;;;13.40;99.90;;;;;;6195046;23;20413;-87
2023/05/02 08:19:24;;;;;;;9.53;3.60;;;13.60;99.90;;;;;;6185939;23;20455;-85
2023/05/02 08:21:51;;;;;;;6.43;2.80;;;13.80;99.90;;;;;;6184689;23;20894;-85
2023/05/02 08:24:18;;;;;;;7.97;2.53;;;13.60;99.90;;;;;;6183793;23;20909;-85
2023/05/02 08:26:45;;;;;;;9.73;2.30;;;13.50;99.90;;;;;;6184672;23;20804;-86
2023/05/02 08:29:12;;;;;;;8.50;2.00;;;13.40;99.90;;;;;;6186151;23;20492;-85
2023/05/02 08:31:41;;;;;;;6.00;2.50;;;12.70;99.90;;;;;;6184863;23;20484;-85
2023/05/02 08:34:08;;;;;;;5.53;1.63;;;12.00;99.90;;;;;;6194438;23;20807;-85
2023/05/02 08:36:36;;;;;;;11.63;4.20;;;11.60;99.90;;;;;;6185053;23;20726;-86
2023/05/02 08:39:03;;;;;;;4.23;1.70;;;11.30;99.90;;;;;;6186372;23;20750;-85
2023/05/02 08:41:30;;;;;;;9.27;2.30;;;11.30;99.90;;;;;;6185006;23;20437;-86
2023/05/02 08:43:59;;;;;;;11.07;3.30;;;11.10;99.90;;;;;;6184421;23;20467;-86
2023/05/02 08:46:26;;;;;;;5.60;2.40;;;11.10;99.90;;;;;;6184761;23;20436;-85
2023/05/02 08:48:57;;;;;;;6.90;2.63;;;11.10;99.90;;;;;;6186316;23;20499;-85
2023/05/02 08:51:27;;;;;;;6.03;2.53;;;11.10;99.90;;;;;;6184836;23;20448;-84
2023/05/02 08:53:55;;;;;;;7.40;2.47;;;11.00;99.90;;;;;;6184695;23;20745;-85
2023/05/02 08:56:22;;;;;;;7.20;2.13;;;11.10;99.90;;;;;;6184799;23;20417;-85
2023/05/02 08:58:49;;;;;;;6.27;2.60;;;11.10;99.90;;;;;;6186163;23;20416;-85
2023/05/02 09:01:18;;;;;;;6.37;2.23;;;11.10;99.90;;;;;;6185155;23;20433;-85
2023/05/02 09:03:46;;;;;;;7.27;2.47;;;11.30;99.90;;;;;;6184228;23;20428;-85
2023/05/02 09:06:16;;;;;;;5.60;2.30;;;11.20;99.90;;;;;;6184660;23;20413;-85
2023/05/02 09:08:45;;;;;;;6.87;2.13;;;11.20;99.90;;;;;;6185808;23;20480;-84
2023/05/02 09:11:12;;;;;;;5.10;3.30;;;11.40;99.90;;;;;;6194756;23;20945;-85
2023/05/02 09:13:40;;;;;;;7.17;2.63;;;11.60;99.90;;;;;;6184483;23;20448;-85
2023/05/02 09:16:09;;;;;;;5.37;2.43;;;11.90;99.90;;;;;;6184617;23;20421;-85
2023/05/02 09:18:37;;;;;;;10.30;3.67;;;12.10;99.90;;;;;;6196036;23;20448;-85
2023/05/02 09:21:07;;;;;;;12.70;3.53;;;12.30;99.90;;;;;;6187092;23;20472;-85
2023/05/02 09:23:40;;;;;;;8.33;3.47;;;12.80;99.90;;;;;;6185946;23;20412;-85
2023/05/02 09:26:22;;;;;;;5.50;2.80;;;13.10;98.90;;;;;;6186579;23;20734;-85
2023/05/02 09:28:50;;;;;;;9.53;3.70;;;13.00;97.40;;;;;;6187538;23;20423;-85
2023/05/02 09:31:20;;;;;;;7.43;3.63;;;12.90;98.80;;;;;;6186497;23;20455;-85
2023/05/02 09:33:47;;;;;;;11.90;3.83;;;12.90;98.80;;;;;;6186688;23;20416;-85
2023/05/02 09:36:16;;;;;;;7.10;2.70;;;12.50;99.90;;;;;;6195981;23;20447;-85
2023/05/02 09:38:46;;;;;;;6.40;2.63;;;12.30;99.70;;;;;;6187541;23;20413;-85
2023/05/02 09:41:14;;;;;;;9.20;3.40;;;11.90;98.00;;;;;;6186868;23;20452;-84
2023/05/02 09:43:41;;;;;;;7.10;3.63;;;11.80;98.30;;;;;;6185840;23;20500;-85
2023/05/02 09:46:11;;;;;;;12.40;3.20;;;11.80;99.00;;;;;;6185940;23;20412;-85
2023/05/02 09:48:53;;;;;;;6.83;2.47;;;11.90;98.20;;;;;;6187759;23;20413;-85
2023/05/02 09:51:21;;;;;;;9.83;2.50;;;11.90;98.40;;;;;;6196625;23;20432;-85
2023/05/02 09:53:50;;;;;;;6.00;2.97;;;11.70;98.60;;;;;;6196177;23;20406;-85
2023/05/02 09:56:17;;;;;;;7.30;3.07;;;11.70;98.30;;;;;;6186246;23;20412;-85
2023/05/02 09:58:45;;;;;;;9.13;3.40;;;11.80;98.40;;;;;;6187614;23;20427;-85
2023/05/02 10:01:15;;;;;;;13.80;3.53;;;12.00;99.80;;;;;;6186264;23;20436;-85
2023/05/02 10:03:47;;;;;;;10.40;4.00;;;12.40;98.50;;;;;;6185640;23;20949;-85
2023/05/02 10:06:17;;;;;;;12.17;3.17;;;12.30;97.00;;;;;;6186396;23;20711;-85
2023/05/02 10:08:46;;;;;;;7.17;2.40;;;12.30;95.90;;;;;;6197473;23;20424;-85
2023/05/02 10:11:15;;;;;;;8.53;2.33;;;12.30;95.30;;;;;;6186770;23;20500;-85
2023/05/02 10:13:43;;;;;;;12.23;3.60;;;12.00;96.20;;;;;;6185818;23;20420;-84
2023/05/02 10:16:13;;;;;;;13.23;3.70;;;11.90;98.40;;;;;;6195647;23;20732;-85
2023/05/02 10:18:45;;;;;;;10.40;5.20;;;11.90;98.40;;;;;;6187053;23;20504;-85
2023/05/02 10:21:16;;;;;;;10.43;3.97;;;11.90;98.40;;;;;;6186022;23;20421;-85
2023/05/02 10:23:43;;;;;;;7.97;3.53;;;12.00;98.40;;;;;;6185909;23;20407;-85
2023/05/02 10:26:14;;;;;;;13.10;5.27;;;12.00;97.30;;;;;;6185810;23;20420;-85
2023/05/02 10:28:42;;;;;;;7.63;3.10;;;11.90;97.80;;;;;;6187515;23;20455;-85
2023/05/02 10:31:13;;;;;;;7.23;3.13;;;12.10;96.00;;;;;;6195580;23;20456;-85
2023/05/02 10:33:40;;;;;;;9.17;3.40;;;12.20;94.20;;;;;;6185712;23;20734;-86
2023/05/02 10:36:09;;;;;;;6.90;3.30;;;12.40;95.30;;;;;;6184691;23;20504;-86
2023/05/02 10:38:40;;;;;;;11.20;2.90;;;12.70;95.80;;;;;;6186843;23;20496;-86
2023/05/02 10:41:16;;;;;;;19.37;4.23;;;12.50;94.00;;;;;;6185945;23;20432;-86
2023/05/02 10:43:48;;;;;;;7.23;3.20;;;12.70;95.40;;;;;;6183560;23;20396;-85
2023/05/02 10:46:31;;;;;;;6.60;2.70;;;12.50;94.30;;;;;;6184874;23;20420;-86
2023/05/02 10:49:02;;;;;;;9.07;3.30;;;12.60;92.60;;;;;;6187217;23;20724;-86
2023/05/02 10:51:30;;;;;;;6.67;2.47;;;12.70;92.10;;;;;;6185918;23;20452;-86
2023/05/02 10:54:19;;;;;;;9.40;4.17;;;12.80;91.30;;;;;;6185159;23;20472;-86
2023/05/02 10:57:07;;;;;;;7.13;3.47;;;13.10;92.20;;;;;;6185582;23;20766;-85
2023/05/02 10:59:36;;;;;;;8.37;3.07;;;13.60;92.20;;;;;;6186712;23;20957;-85
2023/05/02 11:02:03;;;;;;;8.70;4.00;;;14.00;90.70;;;;;;6184747;23;20433;-86
2023/05/02 11:05:07;;;;;;;9.97;3.30;;;14.30;88.20;;;;;;6185111;23;20434;-87
2023/05/02 11:07:35;;;;;;;9.17;3.60;;;15.00;76.70;;;;;;6185210;23;20492;-86
2023/05/02 11:10:26;;;;;;;11.77;3.47;;;15.90;80.00;;;;;;6186585;23;20796;-86
2023/05/02 11:12:55;;;;;;;12.43;4.10;;;16.00;69.50;;;;;;6185474;23;20488;-86
2023/05/02 11:15:58;;;;;;;12.83;4.60;;;16.70;71.90;;;;;;6184737;23;20493;-87
2023/05/02 11:18:25;;;;;;;16.43;3.97;;;17.00;64.70;;;;;;6186259;23;20393;-87
2023/05/02 11:20:52;;;;;;;7.33;3.30;;;17.30;67.60;;;;;;6186023;23;20438;-87
2023/05/02 11:23:24;;;;;;;9.20;4.17;;;16.80;72.50;;;;;;6185465;23;20491;-87
2023/05/02 11:25:54;;;;;;;12.40;3.10;;;15.40;72.50;;;;;;6184805;23;20414;-88
2023/05/02 11:28:43;;;;;;;6.10;2.90;;;14.80;76.10;;;;;;6196187;23;20740;-85
2023/05/02 11:31:43;;;;;;;5.90;2.67;;;14.70;74.20;;;;;;6186306;23;20415;-86
2023/05/02 11:34:11;;;;;;;11.90;4.00;;;14.60;73.10;;;;;;6178570;23;20801;-86
2023/05/02 11:36:37;;;;;;;15.00;4.70;;;14.30;74.80;;;;;;6184992;23;20446;-86
2023/05/02 11:39:05;;;;;;;9.97;3.90;;;14.20;76.90;;;;;;6186373;23;20467;-85
2023/05/02 11:41:41;;;;;;;8.87;4.90;;;14.10;77.00;;;;;;6194704;23;20932;-86
2023/05/02 11:44:10;;;;;;;13.73;4.30;;;14.20;75.70;;;;;;6184566;23;20492;-86
2023/05/02 11:46:37;;;;;;;13.13;3.20;;;14.10;80.70;;;;;;6194990;23;20503;-85
2023/05/02 11:49:05;;;;;;;13.87;4.43;;;13.80;75.10;;;;;;6186674;23;20582;-86
2023/05/02 11:51:32;;;;;;;6.80;3.17;;;13.90;80.10;;;;;;6185605;23;20495;-85
2023/05/02 11:53:59;;;;;;;8.73;3.50;;;14.00;69.70;;;;;;6184889;23;20492;-86
2023/05/02 11:56:26;;;;;;;7.97;3.60;;;14.40;70.50;;;;;;6185218;23;20413;-87
2023/05/02 11:58:59;;;;;;;7.53;2.90;;;14.60;65.20;;;;;;6186214;23;20973;-86
2023/05/02 12:01:29;;;;;;;8.97;4.13;;;15.10;65.60;;;;;;6185011;23;20935;-86
2023/05/02 12:04:03;;;;;;;9.80;3.20;;;16.30;66.70;;;;;;6184532;23;20422;-86
2023/05/02 12:06:30;;;;;;;9.63;4.97;;;16.50;57.30;;;;;;6185158;23;20489;-87
2023/05/02 12:09:06;;;;;;;7.07;3.23;;;16.10;54.90;;;;;;6186462;23;20415;-86
2023/05/02 12:11:34;;;;;;;7.60;3.87;;;15.40;61.40;;;;;;6185340;23;20855;-86
2023/05/02 12:14:02;;;;;;;13.53;4.73;;;15.00;58.80;;;;;;6184913;23;20807;-86
2023/05/02 12:16:30;;;;;;;11.30;3.70;;;14.50;59.50;;;;;;6185049;23;20967;-86
2023/05/02 12:18:59;;;;;;;13.47;3.87;;;14.30;59.40;;;;;;6186095;23;20416;-86
2023/05/02 12:21:28;;;;;;;7.10;2.30;;;14.50;61.10;;;;;;6185041;23;20864;-86
2023/05/02 12:23:56;;;;;;;16.70;4.43;;;14.50;56.80;;;;;;6184431;23;20414;-86
2023/05/02 12:26:28;;;;;;;8.33;2.97;;;14.20;64.80;;;;;;6194427;23;20414;-86
2023/05/02 12:28:55;;;;;;;10.37;3.90;;;13.90;64.50;;;;;;6186462;23;20399;-87
2023/05/02 12:31:23;;;;;;;9.33;3.20;;;14.20;58.50;;;;;;6184840;23;20445;-86
2023/05/02 12:33:56;;;;;;;8.47;3.60;;;15.20;60.80;;;;;;6184467;23;20419;-85